KBBD - Brady/Curtis Fld, TX, US

Issued at 0520 UTC 26 May 2019
Updated at 0918 UTC 26 May 2019
Potential Impact None Slight Moderate High
Time0915Z 26/10Z 26/11Z 26/12Z 26/13Z 26/14Z 26/15Z 26/16Z 26/17Z 26/18Z 26/19Z 26/20Z 26/21Z 26/22Z>>
Type OBS PRVL PRVL PRVL PRVL PRVL PRVL PRVL PRVL PRVL PRVL PRVL PRVL PRVL
VIS 10 >6 >6 >6 >6 >6 >6 >6 >6 >6 >6 >6 >6 >6
CIG 22 15 15 15 15 15 15 15 15 50 50 50 50 50
Cover SCT BKN BKN BKN BKN BKN BKN BKN BKN BKN BKN BKN BKN BKN
FltCat MVFR MVFR MVFR MVFR MVFR MVFR MVFR MVFR MVFR VFR VFR VFR VFR VFR
WX -- -- -- -- -- -- -- -- -- -- -- -- -- --
WDir 160 150 150 150 150 150 150 150 150 150 150 150 150 150
WSpd 12 11 11 11 11 11 11 11 11 14 14 14 14 14
WGst 17 -- -- -- -- -- -- -- -- 21 21 21 21 21
Raw TAF
KBBD 260520Z 2606/2706 16011G19KT P6SM SCT050 OVC200
  FM260900 15011KT P6SM BKN015
  FM261800 15014G21KT P6SM BKN050
  FM270100 15012KT P6SM BKN250


Raw METAR
KBBD 260915Z AUTO 16012G17KT 10SM BKN022 SCT029 21/18 A2997 RMK AO2
KBBD 260855Z AUTO 16011KT 10SM BKN021 BKN027 21/18 A2997 RMK AO2
KBBD 260835Z AUTO 16011KT 10SM BKN021 BKN026 21/18 A2998 RMK AO2
KBBD 260815Z AUTO 16010KT 10SM OVC020 21/18 A2999 RMK AO2
KBBD 260755Z AUTO 16010G16KT 10SM BKN021 BKN030 OVC036 21/18 A2998 RMK AO2
KBBD 260735Z AUTO 15009G15KT 10SM FEW021 SCT028 BKN034 21/19 A2998 RMK AO2
KBBD 260715Z AUTO 15010KT 10SM FEW022 BKN028 BKN035 22/19 A2998 RMK AO2
KBBD 260655Z AUTO 16011G16KT 10SM FEW022 SCT030 BKN036 22/19 A2998 RMK AO2
KBBD 260635Z AUTO 16013KT 10SM BKN020 BKN026 OVC040 22/19 A2999 RMK AO2

METAR Board
Radar Display
Forecast Discussion
For situational awareness. Not to be used for flight planning purposes.